Time;durP1;ratioP1;P1;durP2;ratioP2;P2;SDS_P1;SDS_P2;PMS_P1;PMS_P2;Temp;Humidity;BMP_temperature;BMP_pressure;BME280_temperature;BME280_humidity;BME280_pressure;Samples;Min_cycle;Max_cycle;Signal;HPM_P1;HPM_P2
2022/05/03 00:00:08;;;;;;;23.10;14.02;;;;;;;8.40;100.00;97733.50;5095472;28;20048;-80
2022/05/03 00:03:03;;;;;;;25.30;14.73;;;;;;;8.24;100.00;97718.66;5074639;28;20193;-80
2022/05/03 00:05:50;;;;;;;21.95;14.70;;;;;;;8.18;100.00;97725.25;5074091;28;20048;-81
2022/05/03 00:08:31;;;;;;;22.83;15.52;;;;;;;8.15;100.00;97723.13;5076811;28;20060;-81
2022/05/03 00:11:28;;;;;;;24.90;15.90;;;;;;;8.32;100.00;97722.56;5078807;28;20128;-81
2022/05/03 00:14:23;;;;;;;25.17;14.90;;;;;;;8.40;100.00;97722.69;5080364;28;20048;-77
2022/05/03 00:16:51;;;;;;;22.83;15.63;;;;;;;8.28;100.00;97708.91;5085267;28;20048;-80
2022/05/03 00:19:18;;;;;;;24.02;14.85;;;;;;;8.29;100.00;97721.28;5073843;28;20048;-80
2022/05/03 00:21:48;;;;;;;23.70;16.13;;;;;;;8.22;100.00;97706.56;5072545;28;20052;-80
2022/05/03 00:24:15;;;;;;;24.17;15.80;;;;;;;8.13;100.00;97698.34;5072285;28;20052;-81
2022/05/03 00:26:45;;;;;;;22.83;15.50;;;;;;;8.09;100.00;97692.75;5073210;28;20493;-81
2022/05/03 00:29:16;;;;;;;20.95;14.43;;;;;;;8.10;100.00;97705.13;5072808;28;20072;-80
2022/05/03 00:31:53;;;;;;;21.08;14.25;;;;;;;8.12;100.00;97702.97;5073054;28;20059;-80
2022/05/03 00:34:20;;;;;;;20.25;14.65;;;;;;;8.09;100.00;97705.44;5075636;28;20052;-81
2022/05/03 00:36:47;;;;;;;21.52;14.85;;;;;;;8.07;100.00;97694.16;5076606;28;20048;-79
2022/05/03 00:39:14;;;;;;;24.88;14.38;;;;;;;8.06;100.00;97693.34;5093753;28;20052;-80
2022/05/03 00:41:49;;;;;;;18.73;13.40;;;;;;;8.00;100.00;97696.44;5090595;28;20059;-80
2022/05/03 00:47:15;;;;;;;20.88;12.77;;;;;;;7.98;100.00;97691.34;5092045;28;20478;-80
2022/05/03 00:50:02;;;;;;;23.23;14.45;;;;;;;7.98;100.00;97695.91;5091960;28;20551;-79
2022/05/03 00:52:49;;;;;;;25.83;15.40;;;;;;;7.95;100.00;97685.72;5090923;28;20109;-80
2022/05/03 00:55:54;;;;;;;24.95;15.05;;;;;;;7.92;100.00;97673.63;5092359;28;20207;-81
2022/05/03 00:58:47;;;;;;;19.67;13.10;;;;;;;7.90;100.00;97693.91;5090691;28;20066;-82
2022/05/03 01:01:44;;;;;;;23.75;13.95;;;;;;;7.70;100.00;97683.47;5095321;28;20074;-82
2022/05/03 01:04:17;;;;;;;22.80;13.60;;;;;;;7.70;100.00;97686.16;5098424;28;20068;-81
2022/05/03 01:07:13;;;;;;;22.40;13.15;;;;;;;7.59;100.00;97690.91;5096632;28;20052;-80
2022/05/03 01:09:52;;;;;;;;;;;;;;;;;;;;;
2022/05/03 01:12:51;;;;;;;23.88;13.77;;;;;;;7.51;100.00;97689.69;5094853;28;20098;-80
2022/05/03 01:15:22;;;;;;;19.13;12.95;;;;;;;7.43;100.00;97689.56;5089615;28;20622;-79
2022/05/03 01:18:14;;;;;;;24.77;14.45;;;;;;;7.26;100.00;97698.16;5090750;28;20052;-79
2022/05/03 01:20:53;;;;;;;25.88;15.13;;;;;;;7.16;100.00;97701.00;5090060;28;20076;-80
2022/05/03 01:23:52;;;;;;;23.10;16.02;;;;;;;7.28;100.00;97692.47;5086649;28;20048;-80
2022/05/03 01:26:58;;;;;;;26.90;16.70;;;;;;;7.34;100.00;97694.00;5091180;28;20056;-81
2022/05/03 01:29:35;;;;;;;27.42;16.88;;;;;;;7.18;100.00;97700.69;5095073;28;20052;-80
2022/05/03 01:32:05;;;;;;;24.65;17.13;;;;;;;7.06;100.00;97687.69;5090290;28;20044;-78
2022/05/03 01:34:33;;;;;;;27.13;17.02;;;;;;;7.05;100.00;97698.72;5090219;28;20093;-79
2022/05/03 01:36:59;;;;;;;22.95;14.88;;;;;;;7.12;100.00;97697.31;5091482;28;20064;-81
2022/05/03 01:39:44;;;;;;;18.98;14.00;;;;;;;7.15;100.00;97695.91;5090523;28;20043;-79
2022/05/03 01:42:24;;;;;;;20.15;13.35;;;;;;;7.12;100.00;97693.81;5093253;28;20436;-78
2022/05/03 01:45:02;;;;;;;19.13;13.35;;;;;;;7.12;100.00;97686.53;5091186;28;20044;-80
2022/05/03 01:47:56;;;;;;;19.88;12.55;;;;;;;7.04;100.00;97689.88;5091527;28;20052;-79
2022/05/03 01:50:42;;;;;;;19.50;13.35;;;;;;;7.00;100.00;97696.09;5091519;28;20044;-79
2022/05/03 01:53:27;;;;;;;21.52;14.48;;;;;;;7.01;100.00;97692.34;5091041;28;20048;-79
2022/05/03 01:56:05;;;;;;;18.67;13.68;;;;;;;6.90;100.00;97694.38;5091604;28;20086;-79
2022/05/03 01:58:53;;;;;;;21.23;14.98;;;;;;;6.96;100.00;97693.22;5089913;28;20097;-80
2022/05/03 02:01:44;;;;;;;26.23;14.38;;;;;;;7.05;100.00;97694.16;5092212;28;20087;-81
2022/05/03 02:04:48;;;;;;;30.38;14.50;;;;;;;7.09;100.00;97697.88;5090479;28;20074;-80
2022/05/03 02:07:35;;;;;;;23.75;14.35;;;;;;;6.96;100.00;97687.84;5092879;28;20056;-80
2022/05/03 02:10:03;;;;;;;19.35;13.60;;;;;;;6.99;100.00;97691.84;5084358;28;20091;-78
2022/05/03 02:12:30;;;;;;;20.58;13.93;;;;;;;6.98;100.00;97685.66;5103810;28;20078;-78
2022/05/03 02:15:13;;;;;;;18.65;13.38;;;;;;;6.93;100.00;97682.22;5116526;28;20032;-79
2022/05/03 02:18:05;;;;;;;21.48;14.32;;;;;;;6.93;100.00;97684.91;5105676;28;20097;-80
2022/05/03 02:20:53;;;;;;;21.63;14.10;;;;;;;7.03;100.00;97676.69;5099588;28;20071;-78
2022/05/03 02:23:25;;;;;;;21.45;14.15;;;;;;;7.07;100.00;97681.19;5097283;28;20563;-80
2022/05/03 02:26:18;;;;;;;17.95;12.73;;;;;;;7.05;100.00;97677.19;5102240;28;20048;-77
2022/05/03 02:28:54;;;;;;;21.90;12.82;;;;;;;7.03;100.00;97674.81;5096654;28;20051;-78
2022/05/03 02:31:37;;;;;;;17.30;12.10;;;;;;;7.04;100.00;97671.03;5100831;28;20121;-81
2022/05/03 02:34:14;;;;;;;15.98;11.05;;;;;;;7.04;100.00;97672.91;5100788;28;20097;-80
2022/05/03 02:36:47;;;;;;;19.25;11.57;;;;;;;7.03;100.00;97676.69;5101951;28;20051;-80
2022/05/03 02:39:16;;;;;;;18.10;11.45;;;;;;;7.04;100.00;97676.41;5102446;28;20232;-78
2022/05/03 02:41:46;;;;;;;14.93;10.98;;;;;;;7.07;100.00;97678.50;5101261;28;20113;-78
2022/05/03 02:44:13;;;;;;;17.58;11.45;;;;;;;7.05;100.00;97669.13;5101174;28;20052;-77
2022/05/03 02:47:02;;;;;;;16.52;11.43;;;;;;;6.97;100.00;97670.56;5103688;28;20055;-78
2022/05/03 02:50:06;;;;;;;15.27;11.25;;;;;;;6.87;100.00;97666.16;5105037;28;20081;-79
2022/05/03 02:52:49;;;;;;;20.42;13.13;;;;;;;6.90;100.00;97679.03;5103532;28;20134;-77
2022/05/03 02:55:45;;;;;;;21.75;13.57;;;;;;;6.83;100.00;97672.41;5106187;28;20063;-78
2022/05/03 02:58:37;;;;;;;23.30;13.90;;;;;;;6.88;100.00;97683.09;5102135;28;20056;-79
2022/05/03 03:04:12;;;;;;;20.60;12.85;;;;;;;6.60;100.00;97660.59;5105696;28;20059;-81
2022/05/03 03:06:42;;;;;;;21.08;13.30;;;;;;;6.72;100.00;97687.06;5105117;28;20060;-80
2022/05/03 03:09:17;;;;;;;30.90;15.00;;;;;;;6.63;100.00;97675.34;5093631;28;20109;-79
2022/05/03 03:12:01;;;;;;;26.83;16.45;;;;;;;6.70;100.00;97675.81;5095640;28;20067;-81
2022/05/03 03:14:33;;;;;;;20.90;15.32;;;;;;;6.72;100.00;97685.19;5095469;28;20110;-80
2022/05/03 03:17:11;;;;;;;22.38;15.52;;;;;;;6.70;100.00;97679.28;5096352;28;20056;-83
2022/05/03 03:19:38;;;;;;;30.38;15.95;;;;;;;6.92;100.00;97667.19;5095577;28;20143;-80
2022/05/03 03:22:12;;;;;;;26.35;16.58;;;;;;;6.92;100.00;97684.09;5097005;28;20069;-81
2022/05/03 03:24:40;;;;;;;24.17;15.38;;;;;;;6.96;100.00;97681.66;5093002;28;20656;-80
2022/05/03 03:27:10;;;;;;;24.35;15.95;;;;;;;7.01;100.00;97671.63;5093258;28;20025;-78
2022/05/03 03:29:38;;;;;;;27.90;15.32;;;;;;;7.12;100.00;97675.78;5107027;28;20031;-80
2022/05/03 03:32:12;;;;;;;23.35;14.93;;;;;;;7.08;100.00;97661.28;5103148;28;20225;-77
2022/05/03 03:34:43;;;;;;;22.60;15.02;;;;;;;7.03;100.00;97661.34;5104169;28;20216;-79
2022/05/03 03:37:12;;;;;;;21.23;14.05;;;;;;;7.05;100.00;97661.84;5090039;28;20104;-80
2022/05/03 03:39:39;;;;;;;21.23;14.50;;;;;;;7.00;100.00;97664.63;5096027;28;20040;-81
2022/05/03 03:42:07;;;;;;;20.17;14.40;;;;;;;6.99;100.00;97660.34;5094072;28;20473;-80
2022/05/03 03:44:36;;;;;;;19.88;14.05;;;;;;;6.95;100.00;97667.38;5095537;28;20071;-81
2022/05/03 03:47:14;;;;;;;20.73;13.35;;;;;;;6.88;100.00;97667.75;5096012;28;20052;-79
2022/05/03 03:49:43;;;;;;;22.95;15.00;;;;;;;6.93;100.00;97669.56;5089254;28;20044;-80
2022/05/03 03:52:11;;;;;;;23.15;14.82;;;;;;;6.92;100.00;97673.34;5091531;28;20051;-81
2022/05/03 03:54:44;;;;;;;20.65;15.00;;;;;;;6.92;100.00;97669.88;5093407;28;20051;-81
2022/05/03 03:57:14;;;;;;;24.63;14.60;;;;;;;6.86;100.00;97672.59;5092396;28;20088;-81
2022/05/03 03:59:43;;;;;;;29.30;16.67;;;;;;;6.87;100.00;97682.28;5092164;28;20076;-80
2022/05/03 04:02:09;;;;;;;26.73;16.77;;;;;;;6.87;100.00;97678.78;5090709;28;20466;-81
2022/05/03 04:04:37;;;;;;;23.25;16.17;;;;;;;6.92;100.00;97673.34;5091484;28;20496;-81
2022/05/03 04:07:05;;;;;;;23.58;15.52;;;;;;;6.99;100.00;97665.72;5101710;28;20106;-82
2022/05/03 04:09:37;;;;;;;21.05;14.70;;;;;;;7.04;100.00;97672.91;5077026;28;20048;-82
2022/05/03 04:12:06;;;;;;;21.42;14.38;;;;;;;7.11;100.00;97674.16;5071454;28;20122;-82
2022/05/03 04:14:35;;;;;;;24.05;13.55;;;;;;;7.13;100.00;97674.66;5073165;28;20111;-81
2022/05/03 04:17:02;;;;;;;24.70;13.98;;;;;;;7.15;100.00;97677.84;5073907;28;20117;-80
2022/05/03 04:19:31;;;;;;;20.90;13.15;;;;;;;7.18;100.00;97679.16;5098014;28;20100;-81
2022/05/03 04:22:12;;;;;;;25.65;13.50;;;;;;;7.15;100.00;97677.06;5102246;28;20052;-81
2022/05/03 04:24:40;;;;;;;19.80;13.02;;;;;;;7.22;100.00;97670.22;5100316;28;20039;-79
2022/05/03 04:27:07;;;;;;;22.88;14.07;;;;;;;7.19;100.00;97670.00;5097159;28;20087;-78
2022/05/03 04:29:38;;;;;;;21.88;13.40;;;;;;;7.17;100.00;97672.19;5101620;28;20060;-78
2022/05/03 04:32:05;;;;;;;24.80;14.35;;;;;;;7.07;100.00;97675.81;5098736;28;20126;-78
2022/05/03 04:34:34;;;;;;;19.83;13.35;;;;;;;7.12;100.00;97680.34;5108080;28;20051;-77
2022/05/03 04:37:05;;;;;;;25.58;13.48;;;;;;;7.18;100.00;97668.41;5107480;28;20493;-77
2022/05/03 04:39:42;;;;;;;21.45;14.10;;;;;;;7.16;100.00;97679.47;5084776;28;20044;-77
2022/05/03 04:42:09;;;;;;;23.35;14.50;;;;;;;7.18;100.00;97677.28;5091076;28;20538;-78
2022/05/03 04:44:35;;;;;;;20.85;14.50;;;;;;;7.18;100.00;97674.59;5090874;28;20048;-78
2022/05/03 04:47:02;;;;;;;23.05;14.75;;;;;;;7.22;100.00;97680.19;5092106;28;20082;-78
2022/05/03 04:49:34;;;;;;;23.50;14.30;;;;;;;7.26;100.00;97671.25;5085000;28;20139;-78
2022/05/03 04:52:01;;;;;;;22.83;15.15;;;;;;;7.34;100.00;97683.25;5103101;28;20073;-78
2022/05/03 04:54:41;;;;;;;;;;;;;;;;;;;;;
2022/05/03 04:57:09;;;;;;;26.15;15.52;;;;;;;7.53;100.00;97684.84;5098165;28;20086;-78
2022/05/03 04:59:36;;;;;;;23.05;15.65;;;;;;;7.56;100.00;97688.03;5101471;28;20043;-79
2022/05/03 05:02:03;;;;;;;25.17;15.98;;;;;;;7.65;100.00;97691.63;5097124;28;20465;-79
2022/05/03 05:04:30;;;;;;;27.35;15.68;;;;;;;7.71;100.00;97685.09;5104957;28;20054;-80
2022/05/03 05:07:01;;;;;;;27.95;14.38;;;;;;;7.88;100.00;97694.22;5108172;28;20074;-79
2022/05/03 05:09:30;;;;;;;23.98;15.05;;;;;;;8.00;100.00;97689.13;5096589;28;20052;-80
2022/05/03 05:11:57;;;;;;;27.65;17.48;;;;;;;8.16;100.00;97695.06;5097774;28;20106;-80
2022/05/03 05:14:25;;;;;;;31.65;20.67;;;;;;;8.40;100.00;97700.31;5104595;28;20052;-81
2022/05/03 05:16:55;;;;;;;28.33;18.25;;;;;;;8.51;100.00;97697.13;5099355;28;20051;-80
2022/05/03 05:19:22;;;;;;;27.70;16.75;;;;;;;8.63;100.00;97697.44;5103079;28;20640;-79
2022/05/03 05:21:48;;;;;;;28.40;19.50;;;;;;;8.77;100.00;97694.72;5101408;28;20049;-78
2022/05/03 05:24:18;;;;;;;32.45;19.80;;;;;;;8.95;100.00;97709.19;5103824;28;20047;-80
2022/05/03 05:26:44;;;;;;;29.15;20.33;;;;;;;9.05;100.00;97706.28;5092216;28;20052;-82
2022/05/03 05:29:11;;;;;;;28.50;20.92;;;;;;;9.25;100.00;97712.03;5098980;28;20109;-80
2022/05/03 05:31:37;;;;;;;29.30;20.00;;;;;;;9.44;100.00;97714.59;5107713;28;20048;-81
2022/05/03 05:34:25;;;;;;;28.38;19.40;;;;;;;9.71;100.00;97706.38;5110691;28;20086;-79
2022/05/03 05:36:54;;;;;;;37.60;19.25;;;;;;;9.89;100.00;97716.19;5101579;28;20056;-80
2022/05/03 05:39:34;;;;;;;26.90;17.80;;;;;;;10.06;100.00;97707.41;5111983;28;20499;-80
2022/05/03 05:42:11;;;;;;;31.65;18.27;;;;;;;10.18;100.00;97712.25;5124372;28;20024;-80
2022/05/03 05:44:40;;;;;;;24.70;17.70;;;;;;;10.31;100.00;97714.09;5114234;28;20028;-80
2022/05/03 05:47:35;;;;;;;;;;;;;;;;;;;;;
2022/05/03 05:50:02;;;;;;;27.88;17.52;;;;;;;10.45;100.00;97718.28;5130115;28;20043;-80
2022/05/03 05:55:19;;;;;;;27.10;16.97;;;;;;;10.61;100.00;97722.19;5126117;28;20062;-82
2022/05/03 05:57:48;;;;;;;33.20;18.10;;;;;;;10.73;100.00;97712.66;5121037;28;20342;-78
2022/05/03 06:00:16;;;;;;;31.05;18.00;;;;;;;10.86;100.00;97714.47;5118708;28;20069;-80
2022/05/03 06:02:42;;;;;;;27.95;18.00;;;;;;;10.88;100.00;97725.78;5105000;28;20087;-80
2022/05/03 06:05:09;;;;;;;26.10;17.70;;;;;;;10.92;100.00;97724.03;5096637;28;20125;-80
2022/05/03 06:07:39;;;;;;;31.23;17.98;;;;;;;11.03;100.00;97723.44;5093194;28;20085;-80
2022/05/03 06:10:06;;;;;;;34.28;18.08;;;;;;;11.08;100.00;97717.88;5094680;28;20386;-80
2022/05/03 06:12:35;;;;;;;29.58;16.70;;;;;;;11.24;100.00;97713.59;5092684;28;20056;-80
2022/05/03 06:15:01;;;;;;;36.85;17.15;;;;;;;11.24;100.00;97712.78;5095748;28;20048;-81
2022/05/03 06:17:33;;;;;;;28.40;17.25;;;;;;;11.37;100.00;97706.44;5095675;28;20044;-80
2022/05/03 06:20:00;;;;;;;32.40;16.67;;;;;;;11.51;100.00;97706.28;5093599;28;20135;-81
2022/05/03 06:22:27;;;;;;;35.53;16.55;;;;;;;11.64;100.00;97706.09;5090674;28;20044;-80
2022/05/03 06:24:59;;;;;;;34.25;16.33;;;;;;;11.75;100.00;97706.63;5093725;28;20049;-80
2022/05/03 06:27:26;;;;;;;35.78;16.45;;;;;;;11.87;100.00;97712.19;5092712;28;20077;-80
2022/05/03 06:29:52;;;;;;;24.98;15.45;;;;;;;12.03;100.00;97709.75;5092288;28;20044;-80
2022/05/03 06:32:19;;;;;;;22.48;15.07;;;;;;;12.10;100.00;97712.81;5092598;28;20055;-80
2022/05/03 06:34:46;;;;;;;28.98;14.75;;;;;;;12.08;100.00;97713.09;5092593;28;20468;-81
2022/05/03 06:37:17;;;;;;;22.50;15.13;;;;;;;12.28;100.00;97715.16;5092267;28;20040;-81
2022/05/03 06:39:44;;;;;;;26.17;14.75;;;;;;;12.44;100.00;97723.56;5094727;28;20044;-81
2022/05/03 06:42:11;;;;;;;22.88;14.30;;;;;;;12.60;100.00;97718.38;5096966;28;20070;-80
2022/05/03 06:44:38;;;;;;;21.70;15.20;;;;;;;12.72;100.00;97719.31;5093397;28;20044;-80
2022/05/03 06:47:07;;;;;;;26.48;14.27;;;;;;;12.88;100.00;97730.41;5080703;28;20106;-79
2022/05/03 06:49:34;;;;;;;26.90;14.90;;;;;;;12.81;100.00;97720.06;5076994;28;20086;-80
2022/05/03 06:52:08;;;;;;;24.63;14.52;;;;;;;13.11;100.00;97737.19;5075142;28;20459;-80
2022/05/03 06:54:34;;;;;;;21.88;13.63;;;;;;;13.16;100.00;97730.78;5075455;28;20527;-80
2022/05/03 06:57:05;;;;;;;21.02;13.68;;;;;;;13.30;100.00;97734.03;5076267;28;20412;-80
2022/05/03 06:59:33;;;;;;;18.10;13.57;;;;;;;13.36;100.00;97732.72;5076182;28;20500;-81
2022/05/03 07:02:09;;;;;;;20.52;13.43;;;;;;;13.44;100.00;97743.56;5075871;28;20060;-80
2022/05/03 07:04:36;;;;;;;29.60;13.70;;;;;;;13.51;100.00;97740.31;5095000;28;20098;-80
2022/05/03 07:07:13;;;;;;;;;;;;;;;;;;;;;
2022/05/03 07:09:40;;;;;;;25.83;13.70;;;;;;;13.76;100.00;97742.03;5096696;28;20046;-81
2022/05/03 07:12:07;;;;;;;24.90;13.80;;;;;;;13.66;100.00;97726.09;5095977;28;20075;-81
2022/05/03 07:14:34;;;;;;;24.00;14.32;;;;;;;13.82;100.00;97745.34;5095188;28;20467;-80
2022/05/03 07:17:03;;;;;;;22.50;14.20;;;;;;;13.84;100.00;97743.88;5096275;28;20374;-80
2022/05/03 07:25:01;;;;;;;19.05;13.93;;;;;;;13.63;100.00;97746.59;5094440;28;20043;-80
2022/05/03 07:27:30;;;;;;;21.45;13.82;;;;;;;13.99;100.00;97754.16;5092043;28;20098;-80
2022/05/03 07:30:02;;;;;;;22.00;14.50;;;;;;;14.05;100.00;97758.28;5081020;28;20124;-80
2022/05/03 07:32:28;;;;;;;24.02;15.70;;;;;;;14.16;100.00;97755.94;5076822;28;20098;-80
2022/05/03 07:34:55;;;;;;;21.40;14.45;;;;;;;14.27;100.00;97759.84;5077300;28;20071;-80
2022/05/03 07:37:21;;;;;;;25.27;16.45;;;;;;;14.24;100.00;97758.59;5083665;28;20447;-80
2022/05/03 07:39:48;;;;;;;24.83;16.52;;;;;;;14.45;100.00;97761.28;5097679;28;20048;-80
2022/05/03 07:42:20;;;;;;;24.88;14.98;;;;;;;14.68;100.00;97762.47;5096385;28;20052;-80
2022/05/03 07:44:55;;;;;;;21.23;13.15;;;;;;;14.71;100.00;97756.31;5097271;28;20056;-80
2022/05/03 07:47:21;;;;;;;19.08;12.60;;;;;;;14.83;100.00;97759.09;5095449;28;20079;-82
2022/05/03 07:49:51;;;;;;;21.73;13.02;;;;;;;14.78;100.00;97767.47;5097886;28;20504;-82
2022/05/03 07:52:18;;;;;;;19.20;12.60;;;;;;;14.79;100.00;97769.06;5090439;28;20130;-80
2022/05/03 07:54:47;;;;;;;18.83;12.07;;;;;;;14.84;100.00;97763.38;5097740;28;20071;-81
2022/05/03 07:57:13;;;;;;;21.13;13.45;;;;;;;14.97;100.00;97769.63;5096910;28;20044;-81
2022/05/03 07:59:40;;;;;;;18.55;13.02;;;;;;;14.82;100.00;97775.75;5108713;28;20089;-79
2022/05/03 08:02:09;;;;;;;21.77;13.80;;;;;;;14.86;100.00;97776.69;5109558;28;20056;-79
2022/05/03 08:04:36;;;;;;;17.88;13.60;;;;;;;15.03;100.00;97773.75;5100939;28;20051;-80
2022/05/03 08:07:03;;;;;;;23.60;13.85;;;;;;;15.26;100.00;97774.09;5100350;28;20048;-81
2022/05/03 08:09:34;;;;;;;19.20;13.57;;;;;;;15.35;100.00;97777.50;5085795;28;20072;-81
2022/05/03 08:12:01;;;;;;;18.48;12.32;;;;;;;15.36;100.00;97784.53;5093973;28;20181;-81
2022/05/03 08:14:28;;;;;;;20.95;12.05;;;;;;;15.27;100.00;97778.41;5097051;28;20059;-81
2022/05/03 08:17:03;;;;;;;23.25;12.25;;;;;;;15.59;100.00;97774.75;5096081;28;20044;-80
2022/05/03 08:19:32;;;;;;;21.88;12.15;;;;;;;15.73;100.00;97774.41;5098311;28;20423;-79
2022/05/03 08:21:58;;;;;;;18.67;12.02;;;;;;;15.79;100.00;97784.75;5096786;28;20064;-82
2022/05/03 08:24:26;;;;;;;22.67;12.73;;;;;;;15.91;100.00;97789.38;5100427;28;20059;-82
2022/05/03 08:26:53;;;;;;;19.90;12.00;;;;;;;15.94;100.00;97792.22;5115848;27;20139;-82
2022/05/03 08:29:20;;;;;;;17.70;11.70;;;;;;;16.19;100.00;97793.72;5103002;28;20043;-80
2022/05/03 08:31:49;;;;;;;18.88;10.30;;;;;;;16.34;100.00;97788.63;5101584;28;20111;-79
2022/05/03 08:34:16;;;;;;;15.23;10.25;;;;;;;16.18;100.00;97797.59;5101164;28;20056;-81
2022/05/03 08:42:01;;;;;;;15.68;10.90;;;;;;;16.47;100.00;97793.72;5095434;28;20070;-81
2022/05/03 08:42:19;;;;;;;16.75;11.45;;;;;;;16.53;100.00;97802.50;5117162;28;20048;-81
2022/05/03 08:44:46;;;;;;;20.42;10.55;;;;;;;16.89;100.00;97802.28;5116001;28;20047;-81
2022/05/03 08:47:17;;;;;;;17.50;11.45;;;;;;;17.00;100.00;97797.88;5117886;28;20043;-81
2022/05/03 08:50:03;;;;;;;24.00;10.38;;;;;;;17.19;100.00;97803.44;5124008;28;20048;-80
2022/05/03 08:52:51;;;;;;;16.05;9.98;;;;;;;17.37;100.00;97801.13;5135058;28;20051;-81
2022/05/03 08:55:18;;;;;;;18.38;10.20;;;;;;;17.50;86.48;97799.09;5136831;28;20039;-80
2022/05/03 08:57:52;;;;;;;20.73;10.38;;;;;;;17.70;88.63;97804.31;5137313;28;20032;-81
2022/05/03 09:00:20;;;;;;;17.45;9.93;;;;;;;17.77;87.44;97801.72;5117113;28;20044;-80
2022/05/03 09:02:54;;;;;;;18.15;10.35;;;;;;;17.62;82.83;97799.00;5117686;28;20055;-79
2022/05/03 09:05:23;;;;;;;13.15;9.65;;;;;;;17.52;74.79;97799.53;5117239;28;20122;-81
2022/05/03 09:07:53;;;;;;;19.20;9.93;;;;;;;17.59;83.13;97794.25;5116346;28;20495;-81
2022/05/03 09:10:22;;;;;;;18.92;10.00;;;;;;;17.93;83.61;97798.94;5117073;28;20050;-81
2022/05/03 09:12:52;;;;;;;15.60;9.68;;;;;;;17.99;86.85;97805.69;5098043;28;20074;-80
2022/05/03 09:15:33;;;;;;;17.25;10.07;;;;;;;18.33;77.31;97795.84;5114556;28;20028;-79
2022/05/03 09:18:02;;;;;;;20.42;10.77;;;;;;;18.53;74.15;97800.97;5116658;28;20035;-79
2022/05/03 09:26:15;;;;;;;15.63;9.30;;;;;;;18.52;82.14;97791.19;5096082;28;20047;-81
2022/05/03 09:28:50;;;;;;;16.55;8.57;;;;;;;19.09;62.96;97789.47;5093924;28;20079;-80
2022/05/03 09:31:35;;;;;;;12.85;8.85;;;;;;;19.09;62.96;97789.47;5093587;28;20047;-82
2022/05/03 09:34:18;;;;;;;13.48;8.85;;;;;;;19.84;59.35;97795.78;5093503;28;20048;-81
2022/05/03 09:36:52;;;;;;;15.40;9.07;;;;;;;20.09;59.53;97793.34;5094425;28;20056;-80
2022/05/03 09:39:41;;;;;;;18.35;10.25;;;;;;;20.02;60.37;97785.03;5095107;28;20047;-80
2022/05/03 09:42:11;;;;;;;14.80;8.93;;;;;;;20.37;57.97;97790.97;5093952;28;20128;-81
2022/05/03 09:44:50;;;;;;;14.90;8.77;;;;;;;19.94;54.58;97790.78;5093809;28;20423;-79
2022/05/03 09:47:18;;;;;;;15.15;7.22;;;;;;;20.30;56.11;97792.84;5094808;28;20112;-81
2022/05/03 09:49:47;;;;;;;13.20;7.60;;;;;;;20.65;48.23;97776.75;5093818;28;20527;-81
2022/05/03 09:52:28;;;;;;;14.05;7.25;;;;;;;21.75;48.78;97781.25;5093808;28;20087;-80
2022/05/03 09:55:00;;;;;;;10.93;7.30;;;;;;;22.55;47.99;97771.03;5094215;28;20150;-81
2022/05/03 09:57:28;;;;;;;11.75;7.88;;;;;;;22.29;47.27;97780.38;5094373;28;20135;-81
2022/05/03 09:59:59;;;;;;;11.18;7.25;;;;;;;23.35;45.27;97764.84;5093735;28;20048;-81
2022/05/03 10:02:27;;;;;;;13.45;6.82;;;;;;;24.10;43.15;97776.63;5092544;28;20500;-79
2022/05/03 10:04:59;;;;;;;10.63;7.22;;;;;;;24.64;42.45;97770.44;5090877;28;20055;-80
2022/05/03 10:07:26;;;;;;;13.20;7.38;;;;;;;24.54;42.21;97771.31;5079113;28;20497;-81
2022/05/03 10:09:56;;;;;;;12.15;7.72;;;;;;;23.78;43.63;97770.34;5072457;28;20106;-80
2022/05/03 10:12:22;;;;;;;12.98;7.38;;;;;;;24.38;41.13;97761.88;5085652;28;20101;-80
2022/05/03 10:14:50;;;;;;;13.70;7.68;;;;;;;25.12;41.32;97756.69;5096841;28;20539;-80
2022/05/03 10:20:54;;;;;;;11.00;7.20;;;;;;;24.66;39.70;97759.75;5104262;28;20113;-78
2022/05/03 10:23:28;;;;;;;10.18;6.85;;;;;;;25.90;38.71;97754.03;5109403;28;20043;-79
2022/05/03 10:25:59;;;;;;;10.45;6.65;;;;;;;24.31;40.03;97759.94;5119420;28;20491;-80
2022/05/03 10:28:59;;;;;;;11.43;6.63;;;;;;;26.26;37.49;97754.44;5076884;28;20063;-79
2022/05/03 10:31:28;;;;;;;15.90;6.63;;;;;;;27.68;35.27;97737.22;5076068;28;20103;-79
2022/05/03 10:33:57;;;;;;;9.90;6.30;;;;;;;26.02;35.49;97734.06;5076262;28;20055;-80
2022/05/03 10:36:30;;;;;;;9.90;5.85;;;;;;;26.86;36.02;97736.19;5077427;28;20084;-80
2022/05/03 10:39:18;;;;;;;8.68;5.75;;;;;;;27.26;34.69;97735.16;5078182;28;20092;-79
2022/05/03 10:42:09;;;;;;;10.90;6.40;;;;;;;28.47;35.14;97734.47;5075031;28;20098;-78
2022/05/03 10:44:42;;;;;;;10.95;6.60;;;;;;;27.74;35.13;97734.75;5074411;28;20459;-79
2022/05/03 10:47:17;;;;;;;17.08;6.57;;;;;;;27.92;34.94;97737.97;5073469;28;20052;-79
2022/05/03 10:50:17;;;;;;;10.32;6.13;;;;;;;28.23;34.54;97733.81;5073957;28;20512;-79
2022/05/03 10:52:53;;;;;;;10.10;6.38;;;;;;;28.70;33.97;97739.97;5073678;28;20095;-79
2022/05/03 10:55:24;;;;;;;11.13;6.85;;;;;;;27.77;35.50;97736.69;5073674;28;20080;-80
2022/05/03 10:58:30;;;;;;;9.18;6.40;;;;;;;28.30;34.16;97732.88;5074208;28;20052;-80
2022/05/03 11:01:06;;;;;;;10.15;6.13;;;;;;;30.05;32.43;97726.25;5076503;28;20442;-80
2022/05/03 11:03:40;;;;;;;8.20;6.10;;;;;;;30.27;32.40;97718.06;5077288;28;20100;-80
2022/05/03 11:06:18;;;;;;;8.48;6.32;;;;;;;30.08;31.47;97717.00;5076378;28;20095;-81
2022/05/03 11:08:57;;;;;;;8.25;6.10;;;;;;;28.17;34.46;97723.59;5077403;28;20559;-79
2022/05/03 11:11:49;;;;;;;12.32;6.10;;;;;;;29.51;33.38;97717.72;5094396;28;20040;-78
2022/05/03 11:14:16;;;;;;;13.27;7.47;;;;;;;29.75;31.72;97718.28;5096785;28;20083;-79
2022/05/03 11:16:47;;;;;;;9.77;6.53;;;;;;;29.55;31.84;97721.22;5099876;28;20048;-80
2022/05/03 11:19:17;;;;;;;8.48;6.50;;;;;;;29.45;31.98;97711.88;5100317;28;20113;-79
2022/05/03 11:21:45;;;;;;;10.25;6.85;;;;;;;30.10;32.32;97717.34;5098107;28;20044;-81
2022/05/03 11:24:21;;;;;;;10.23;7.63;;;;;;;29.91;32.23;97716.28;5098478;28;20051;-81
2022/05/03 11:26:50;;;;;;;10.68;8.13;;;;;;;29.54;32.79;97712.06;5098340;28;20516;-81
2022/05/03 11:29:19;;;;;;;9.30;7.32;;;;;;;29.79;32.39;97703.03;5099331;28;20072;-78
2022/05/03 11:31:47;;;;;;;9.77;7.75;;;;;;;28.89;32.90;97707.69;5099054;28;20083;-79
2022/05/03 11:34:18;;;;;;;13.05;7.32;;;;;;;29.68;32.72;97702.53;5084032;28;20075;-80
2022/05/03 11:36:51;;;;;;;12.15;7.00;;;;;;;29.94;32.47;97700.66;5078750;28;20165;-80
2022/05/03 11:39:22;;;;;;;13.80;7.05;;;;;;;29.03;32.89;97699.78;5079866;28;20071;-80
2022/05/03 11:41:49;;;;;;;14.73;7.05;;;;;;;30.14;31.92;97699.28;5082468;28;20076;-77
2022/05/03 11:44:17;;;;;;;10.85;7.20;;;;;;;29.42;32.79;97704.38;5076941;28;20060;-80
2022/05/03 11:46:45;;;;;;;10.93;7.18;;;;;;;30.68;31.24;97696.47;5072842;28;20144;-79
2022/05/03 11:49:14;;;;;;;13.13;7.00;;;;;;;30.36;30.41;97687.47;5074544;28;20109;-78
2022/05/03 11:57:27;;;;;;;9.38;6.28;;;;;;;31.62;30.31;97687.44;5074538;28;20479;-80
2022/05/03 12:00:00;;;;;;;;;;;;;;;31.89;28.94;97688.44;5074688;28;20052;-79
2022/05/03 12:02:36;;;;;;;10.40;6.00;;;;;;;31.86;30.07;97682.94;5073424;28;20109;-80
2022/05/03 12:05:20;;;;;;;12.52;7.03;;;;;;;27.91;33.01;97683.53;5075928;28;20108;-80
2022/05/03 12:07:57;;;;;;;10.77;6.00;;;;;;;29.32;34.58;97679.59;5076319;28;20077;-80
2022/05/03 12:10:37;;;;;;;9.82;6.60;;;;;;;30.67;31.33;97674.53;5079248;28;20110;-79
2022/05/03 12:13:06;;;;;;;11.82;6.35;;;;;;;29.37;32.28;97681.84;5098627;28;20203;-81
2022/05/03 12:15:41;;;;;;;13.05;7.35;;;;;;;27.43;33.18;97674.91;5098255;28;20052;-81
2022/05/03 12:18:20;;;;;;;;;;;;;;;29.21;34.26;97681.84;5099479;28;20524;-80
2022/05/03 12:20:53;;;;;;;11.95;6.20;;;;;;;27.27;35.27;97672.00;5100131;28;20468;-79
2022/05/03 12:23:22;;;;;;;10.23;6.43;;;;;;;28.11;35.00;97678.75;5102814;28;20490;-80
2022/05/03 12:25:56;;;;;;;8.80;5.65;;;;;;;27.14;35.75;97669.84;5098359;28;20064;-80